Jack Brusco — WDC3066 — position and weather

sailwx.info

Track history (hours):
 
Tides and Currents Weather Stations Pressure Air Temp Water Temp Dewpoint Dewpoint Depression Visibility Wind Speed Wind Dir Waves Ship Positions

Jack Brusco

Owner: Brusco Tug & Barge, Inc., Longview, WA. More information available from US FCC via Universal Licensing System and Coast Guard Vessel Documentation Center.

Last reported at 2015-Sep-01 11:22 UTC. Time now 2015-Sep-01 18:15 UTC.
Position N 45°32' W 124°43'.

Length 36 m; draft 5.2 m.

Type: Tug. MMSI: 3699086.

Date/timePositionNaut miles runAvg speedWind from/ knotsBaromVisibWave heightAir tempDewpointWater temp
2015-Sep-01 11:22N 45°32' W 124°43'6 7.5
2015-Sep-01 10:33N 45°38' W 124°42'7 6.9
2015-Sep-01 09:33N 45°44' W 124°40'7 7.4
2015-Sep-01 08:33N 45°52' W 124°38'7 7.2
2015-Sep-01 07:33N 45°57' W 124°31'6 6.3
2015-Sep-01 06:33N 46°02' W 124°25'7 7.0
2015-Sep-01 05:33N 46°07' W 124°18'6 6.3
2015-Sep-01 04:34N 46°11' W 124°12'6 5.9
2015-Sep-01 03:34N 46°15' W 124°06'7 7.4
2015-Sep-01 02:34N 46°12' W 123°56'7 7.1
2015-Sep-01 01:33N 46°13' W 123°46'6 5.8
2015-Sep-01 00:34N 46°16' W 123°38'5 5.2
2015-Aug-31 23:33N 46°16' W 123°31'4 4.1
2015-Aug-31 22:33N 46°14' W 123°26'5 4.6
2015-Aug-31 21:32N 46°09' W 123°24'3 3.2
2015-Aug-31 20:33N 46°13' W 123°25'1 1.1
2015-Aug-31 19:31N 46°12' W 123°23'0 0.0
2015-Aug-31 18:27N 46°12' W 123°23'0 0.0
2015-Aug-31 17:26N 46°12' W 123°23'0 0.0
2015-Aug-31 16:32N 46°12' W 123°23'0 0.0
2015-Aug-31 15:26N 46°12' W 123°23'0 0.0
2015-Aug-31 14:29N 46°12' W 123°23'0 0.0
2015-Aug-31 13:26N 46°12' W 123°23'0 0.0
2015-Aug-31 12:29N 46°12' W 123°23'0 0.0
2015-Aug-31 11:32N 46°12' W 123°23'0 0.0
2015-Aug-31 10:27N 46°12' W 123°23'0 0.0
2015-Aug-31 09:32N 46°12' W 123°23'0 0.0
2015-Aug-31 08:28N 46°12' W 123°23'0 0.0
2015-Aug-31 07:26N 46°12' W 123°23'0 0.0
2015-Aug-31 06:30N 46°12' W 123°23'0 0.0
2015-Aug-31 05:33N 46°12' W 123°23'0 0.0
2015-Aug-31 04:30N 46°12' W 123°23'0 0.0
2015-Aug-31 03:31N 46°12' W 123°23'0 0.0
2015-Aug-31 02:29N 46°12' W 123°23'0 0.0
2015-Aug-31 01:31N 46°12' W 123°23'0 0.0
2015-Aug-31 00:28N 46°12' W 123°23'0 0.0
2015-Aug-30 23:33N 46°12' W 123°23'0 0.0
2015-Aug-30 22:31N 46°12' W 123°23'0 0.0
2015-Aug-30 21:32N 46°12' W 123°23'0 0.0
2015-Aug-30 20:27N 46°12' W 123°23'0 0.0
2015-Aug-30 19:33N 46°12' W 123°23'0 0.0
2015-Aug-30 18:27N 46°12' W 123°23'0 0.0
2015-Aug-30 17:31N 46°12' W 123°23'0 0.0
2015-Aug-30 16:27N 46°12' W 123°23'0 0.0
2015-Aug-30 15:31N 46°12' W 123°23'0 0.0
2015-Aug-30 14:27N 46°12' W 123°23'0 0.0
2015-Aug-30 13:31N 46°12' W 123°23'0 0.0
2015-Aug-30 12:27N 46°12' W 123°23'0 0.0
2015-Aug-30 11:32N 46°12' W 123°23'0 0.0
2015-Aug-30 10:29N 46°12' W 123°23'0 0.0
2015-Aug-30 09:31N 46°12' W 123°23'0 0.0
2015-Aug-30 08:32N 46°12' W 123°23'0 0.0
2015-Aug-30 07:26N 46°12' W 123°23'0 0.0
2015-Aug-30 06:31N 46°12' W 123°23'0 0.0
2015-Aug-30 05:26N 46°12' W 123°23'0 0.0
2015-Aug-30 04:30N 46°12' W 123°23'0 0.0
2015-Aug-30 03:31N 46°12' W 123°23'0 0.0
2015-Aug-30 02:27N 46°12' W 123°23'0 0.0
2015-Aug-30 01:26N 46°12' W 123°23'0 0.0
2015-Aug-30 00:28N 46°12' W 123°23'0 0.0
2015-Aug-29 23:33N 46°12' W 123°23'0 0.0
2015-Aug-29 22:33N 46°12' W 123°23'0 0.0
2015-Aug-29 21:32N 46°12' W 123°23'0 0.0
2015-Aug-29 20:31N 46°12' W 123°23'0 0.0
2015-Aug-29 19:33N 46°12' W 123°23'0 0.0
2015-Aug-29 18:25N 46°12' W 123°23'0 0.0
2015-Aug-29 17:29N 46°12' W 123°23'0 0.0
2015-Aug-29 16:30N 46°12' W 123°23'0 0.0
2015-Aug-29 15:32N 46°12' W 123°23'0 0.0
2015-Aug-29 14:27N 46°12' W 123°23'0 0.0
2015-Aug-29 13:26N 46°12' W 123°23'0 0.0
2015-Aug-29 12:30N 46°12' W 123°23'0 0.0
2015-Aug-29 11:32N 46°12' W 123°23'0 0.0
2015-Aug-29 10:28N 46°12' W 123°23'0 0.0
2015-Aug-29 09:31N 46°12' W 123°23'0 0.0
2015-Aug-29 08:27N 46°12' W 123°23'0 0.0
2015-Aug-29 07:26N 46°12' W 123°23'0 0.0
2015-Aug-29 06:29N 46°12' W 123°23'0 0.0
2015-Aug-29 05:26N 46°12' W 123°23'0 0.0
2015-Aug-29 04:29N 46°12' W 123°23'0 0.0
2015-Aug-29 03:27N 46°12' W 123°23'0 0.0
2015-Aug-29 02:30N 46°12' W 123°23'0 0.0
2015-Aug-29 01:28N 46°12' W 123°23'0 0.0
2015-Aug-29 00:27N 46°12' W 123°23'0 0.0
2015-Aug-28 23:31N 46°12' W 123°23'0 0.0
2015-Aug-28 22:27N 46°12' W 123°23'0 0.0
2015-Aug-28 21:26N 46°12' W 123°23'0 0.0
2015-Aug-28 20:33N 46°12' W 123°23'0 0.0
2015-Aug-28 19:31N 46°12' W 123°23'0 0.0
2015-Aug-28 18:27N 46°12' W 123°23'0 0.0
2015-Aug-28 17:26N 46°12' W 123°23'0 0.0
2015-Aug-28 16:31N 46°12' W 123°23'0 0.0
2015-Aug-28 15:33N 46°12' W 123°23'0 0.0
2015-Aug-28 14:30N 46°12' W 123°23'0 0.0
2015-Aug-28 13:32N 46°12' W 123°23'0 0.0
2015-Aug-28 12:27N 46°12' W 123°23'0 0.0
2015-Aug-28 11:28N 46°12' W 123°23'0 0.0
2015-Aug-28 10:30N 46°12' W 123°23'0 0.0
2015-Aug-28 09:32N 46°12' W 123°23'0 0.0
2015-Aug-28 08:28N 46°12' W 123°23'0 0.0
2015-Aug-28 07:33N 46°12' W 123°23'0 0.0
2015-Aug-28 06:32N 46°12' W 123°23'0 0.0
2015-Aug-28 05:31N 46°12' W 123°23'0 0.0
2015-Aug-28 04:27N 46°12' W 123°23'0 0.0
2015-Aug-28 03:32N 46°12' W 123°23'0 0.0
2015-Aug-28 02:29N 46°12' W 123°23'0 0.0
2015-Aug-28 01:33N 46°12' W 123°23'6 6.0
2015-Aug-28 00:33N 46°09' W 123°15'1212.1
2015-Aug-27 23:34N 46°07' W 122°58'3 3.0
2015-Aug-27 22:33N 46°09' W 123°02'8 8.1
2015-Aug-27 21:33N 46°10' W 123°14'7 7.2
2015-Aug-27 20:33N 46°09' W 123°24'7 6.7
2015-Aug-27 19:33N 46°16' W 123°27'7 7.1
2015-Aug-27 18:34N 46°15' W 123°38'7 7.0
2015-Aug-27 17:34N 46°13' W 123°47'7 6.6
2015-Aug-27 16:33N 46°12' W 123°56'7 6.7
2015-Aug-27 15:33N 46°15' W 124°05'5 5.1
2015-Aug-27 14:33N 46°13' W 124°12'4 4.2
2015-Aug-27 13:33N 46°18' W 124°13'4 4.3
2015-Aug-27 12:33N 46°22' W 124°14'5 5.1
2015-Aug-27 11:33N 46°27' W 124°15'5 5.1
2015-Aug-27 10:33N 46°32' W 124°16'5 5.3
2015-Aug-27 09:33N 46°37' W 124°17'5 5.4
2015-Aug-27 08:33N 46°43' W 124°18'5 5.3
2015-Aug-27 07:33N 46°48' W 124°19'5 4.6
2015-Aug-27 06:33N 46°52' W 124°15'0 0.0
2015-Aug-26 03:33N 46°52' W 124°15'5 4.6
2015-Aug-26 02:33N 46°49' W 124°20'5 4.9
2015-Aug-26 01:33N 46°44' W 124°19'5 5.4
2015-Aug-26 00:33N 46°39' W 124°17'5 5.2
2015-Aug-25 23:33N 46°34' W 124°16'5 5.2
2015-Aug-25 22:33N 46°29' W 124°15'5 4.9
2015-Aug-25 21:33N 46°24' W 124°14'5 5.0
2015-Aug-25 20:33N 46°19' W 124°13'5 5.1
2015-Aug-25 19:34N 46°14' W 124°12'5 5.5
2015-Aug-25 18:33N 46°15' W 124°05'9 8.9
2015-Aug-25 17:33N 46°11' W 123°53'10 9.6
2015-Aug-25 16:33N 46°15' W 123°40'9 9.4
2015-Aug-25 15:33N 46°15' W 123°27'9 9.2
2015-Aug-25 14:33N 46°09' W 123°18'1110.8
2015-Aug-25 13:32N 46°08' W 123°02'3 2.8
2015-Aug-25 12:33N 46°07' W 122°58'0 0.1
2015-Aug-25 11:33N 46°07' W 122°58'0 0.0
2015-Aug-25 10:33N 46°07' W 122°58'9 9.2
2015-Aug-25 09:33N 46°11' W 123°10'1010.1
2015-Aug-25 08:33N 46°10' W 123°25'2 2.4
2015-Aug-25 07:33N 46°12' W 123°23'2 2.4
2015-Aug-25 06:33N 46°10' W 123°24'3 3.4
2015-Aug-25 05:33N 46°13' W 123°25'7 7.1
2015-Aug-25 04:33N 46°15' W 123°35'9 8.7
2015-Aug-25 03:34N 46°13' W 123°47'8 8.1
2015-Aug-25 02:33N 46°14' W 123°59'6 6.2
2015-Aug-25 01:34N 46°13' W 124°08'5 5.1
2015-Aug-25 00:33N 46°09' W 124°11'7 7.4
2015-Aug-24 23:33N 46°01' W 124°14'7 7.4
2015-Aug-24 22:33N 45°54' W 124°16'7 7.5
2015-Aug-24 21:33N 45°47' W 124°19'8 7.6
2015-Aug-24 20:33N 45°40' W 124°22'7 7.4
2015-Aug-24 19:33N 45°33' W 124°25'7 7.3
2015-Aug-24 18:33N 45°25' W 124°27'8 6.8
2015-Aug-24 17:20N 45°17' W 124°30'7 6.3
2015-Aug-24 16:18N 45°11' W 124°33'5 6.3
2015-Aug-24 15:31N 45°06' W 124°34'7 6.1
2015-Aug-24 14:21N 44°59' W 124°35'6 5.9
2015-Aug-24 13:15N 44°53' W 124°35'9 5.5
2015-Aug-24 11:33N 44°43' W 124°36'5 5.4
2015-Aug-24 10:33N 44°38' W 124°36'8 5.6
2015-Aug-24 09:10N 44°30' W 124°35'4 6.0
2015-Aug-24 08:32N 44°27' W 124°34'6 5.9
2015-Aug-24 07:26N 44°20' W 124°32'25 6.1
2015-Aug-24 03:19N 43°56' W 124°26'11 6.1
2015-Aug-24 01:33N 43°45' W 124°23'  
Track history (hours):
 
Tides and Currents Weather Stations Pressure Air Temp Water Temp Dewpoint Dewpoint Depression Visibility Wind Speed Wind Dir Waves Ship Positions

Jack Brusco

Owner: Brusco Tug & Barge, Inc., Longview, WA. More information available from US FCC via Universal Licensing System and Coast Guard Vessel Documentation Center.

Last reported at 2015-Sep-01 11:22 UTC. Time now 2015-Sep-01 18:15 UTC.
Position N 45°32' W 124°43'.

Length 36 m; draft 5.2 m.

Type: Tug. MMSI: 3699086.

Date/timePositionNaut miles runAvg speedWind from/ knotsBaromVisibWave heightAir tempDewpointWater temp
2015-Sep-01 11:22N 45°32' W 124°43'6 7.5
2015-Sep-01 10:33N 45°38' W 124°42'7 6.9
2015-Sep-01 09:33N 45°44' W 124°40'7 7.4
2015-Sep-01 08:33N 45°52' W 124°38'7 7.2
2015-Sep-01 07:33N 45°57' W 124°31'6 6.3
2015-Sep-01 06:33N 46°02' W 124°25'7 7.0
2015-Sep-01 05:33N 46°07' W 124°18'6 6.3
2015-Sep-01 04:34N 46°11' W 124°12'6 5.9
2015-Sep-01 03:34N 46°15' W 124°06'7 7.4
2015-Sep-01 02:34N 46°12' W 123°56'7 7.1
2015-Sep-01 01:33N 46°13' W 123°46'6 5.8
2015-Sep-01 00:34N 46°16' W 123°38'5 5.2
2015-Aug-31 23:33N 46°16' W 123°31'4 4.1
2015-Aug-31 22:33N 46°14' W 123°26'5 4.6
2015-Aug-31 21:32N 46°09' W 123°24'3 3.2
2015-Aug-31 20:33N 46°13' W 123°25'1 1.1
2015-Aug-31 19:31N 46°12' W 123°23'0 0.0
2015-Aug-31 18:27N 46°12' W 123°23'0 0.0
2015-Aug-31 17:26N 46°12' W 123°23'0 0.0
2015-Aug-31 16:32N 46°12' W 123°23'0 0.0
2015-Aug-31 15:26N 46°12' W 123°23'0 0.0
2015-Aug-31 14:29N 46°12' W 123°23'0 0.0
2015-Aug-31 13:26N 46°12' W 123°23'0 0.0
2015-Aug-31 12:29N 46°12' W 123°23'0 0.0
2015-Aug-31 11:32N 46°12' W 123°23'0 0.0
2015-Aug-31 10:27N 46°12' W 123°23'0 0.0
2015-Aug-31 09:32N 46°12' W 123°23'0 0.0
2015-Aug-31 08:28N 46°12' W 123°23'0 0.0
2015-Aug-31 07:26N 46°12' W 123°23'0 0.0
2015-Aug-31 06:30N 46°12' W 123°23'0 0.0
2015-Aug-31 05:33N 46°12' W 123°23'0 0.0
2015-Aug-31 04:30N 46°12' W 123°23'0 0.0
2015-Aug-31 03:31N 46°12' W 123°23'0 0.0
2015-Aug-31 02:29N 46°12' W 123°23'0 0.0
2015-Aug-31 01:31N 46°12' W 123°23'0 0.0
2015-Aug-31 00:28N 46°12' W 123°23'0 0.0
2015-Aug-30 23:33N 46°12' W 123°23'0 0.0
2015-Aug-30 22:31N 46°12' W 123°23'0 0.0
2015-Aug-30 21:32N 46°12' W 123°23'0 0.0
2015-Aug-30 20:27N 46°12' W 123°23'0 0.0
2015-Aug-30 19:33N 46°12' W 123°23'0 0.0
2015-Aug-30 18:27N 46°12' W 123°23'0 0.0
2015-Aug-30 17:31N 46°12' W 123°23'0 0.0
2015-Aug-30 16:27N 46°12' W 123°23'0 0.0
2015-Aug-30 15:31N 46°12' W 123°23'0 0.0
2015-Aug-30 14:27N 46°12' W 123°23'0 0.0
2015-Aug-30 13:31N 46°12' W 123°23'0 0.0
2015-Aug-30 12:27N 46°12' W 123°23'0 0.0
2015-Aug-30 11:32N 46°12' W 123°23'0 0.0
2015-Aug-30 10:29N 46°12' W 123°23'0 0.0
2015-Aug-30 09:31N 46°12' W 123°23'0 0.0
2015-Aug-30 08:32N 46°12' W 123°23'0 0.0
2015-Aug-30 07:26N 46°12' W 123°23'0 0.0
2015-Aug-30 06:31N 46°12' W 123°23'0 0.0
2015-Aug-30 05:26N 46°12' W 123°23'0 0.0
2015-Aug-30 04:30N 46°12' W 123°23'0 0.0
2015-Aug-30 03:31N 46°12' W 123°23'0 0.0
2015-Aug-30 02:27N 46°12' W 123°23'0 0.0
2015-Aug-30 01:26N 46°12' W 123°23'0 0.0
2015-Aug-30 00:28N 46°12' W 123°23'0 0.0
2015-Aug-29 23:33N 46°12' W 123°23'0 0.0
2015-Aug-29 22:33N 46°12' W 123°23'0 0.0
2015-Aug-29 21:32N 46°12' W 123°23'0 0.0
2015-Aug-29 20:31N 46°12' W 123°23'0 0.0
2015-Aug-29 19:33N 46°12' W 123°23'0 0.0
2015-Aug-29 18:25N 46°12' W 123°23'0 0.0
2015-Aug-29 17:29N 46°12' W 123°23'0 0.0
2015-Aug-29 16:30N 46°12' W 123°23'0 0.0
2015-Aug-29 15:32N 46°12' W 123°23'0 0.0
2015-Aug-29 14:27N 46°12' W 123°23'0 0.0
2015-Aug-29 13:26N 46°12' W 123°23'0 0.0
2015-Aug-29 12:30N 46°12' W 123°23'0 0.0
2015-Aug-29 11:32N 46°12' W 123°23'0 0.0
2015-Aug-29 10:28N 46°12' W 123°23'0 0.0
2015-Aug-29 09:31N 46°12' W 123°23'0 0.0
2015-Aug-29 08:27N 46°12' W 123°23'0 0.0
2015-Aug-29 07:26N 46°12' W 123°23'0 0.0
2015-Aug-29 06:29N 46°12' W 123°23'0 0.0
2015-Aug-29 05:26N 46°12' W 123°23'0 0.0
2015-Aug-29 04:29N 46°12' W 123°23'0 0.0
2015-Aug-29 03:27N 46°12' W 123°23'0 0.0
2015-Aug-29 02:30N 46°12' W 123°23'0 0.0
2015-Aug-29 01:28N 46°12' W 123°23'0 0.0
2015-Aug-29 00:27N 46°12' W 123°23'0 0.0
2015-Aug-28 23:31N 46°12' W 123°23'0 0.0
2015-Aug-28 22:27N 46°12' W 123°23'0 0.0
2015-Aug-28 21:26N 46°12' W 123°23'0 0.0
2015-Aug-28 20:33N 46°12' W 123°23'0 0.0
2015-Aug-28 19:31N 46°12' W 123°23'0 0.0
2015-Aug-28 18:27N 46°12' W 123°23'0 0.0
2015-Aug-28 17:26N 46°12' W 123°23'0 0.0
2015-Aug-28 16:31N 46°12' W 123°23'0 0.0
2015-Aug-28 15:33N 46°12' W 123°23'0 0.0
2015-Aug-28 14:30N 46°12' W 123°23'0 0.0
2015-Aug-28 13:32N 46°12' W 123°23'0 0.0
2015-Aug-28 12:27N 46°12' W 123°23'0 0.0
2015-Aug-28 11:28N 46°12' W 123°23'0 0.0
2015-Aug-28 10:30N 46°12' W 123°23'0 0.0
2015-Aug-28 09:32N 46°12' W 123°23'0 0.0
2015-Aug-28 08:28N 46°12' W 123°23'0 0.0
2015-Aug-28 07:33N 46°12' W 123°23'0 0.0
2015-Aug-28 06:32N 46°12' W 123°23'0 0.0
2015-Aug-28 05:31N 46°12' W 123°23'0 0.0
2015-Aug-28 04:27N 46°12' W 123°23'0 0.0
2015-Aug-28 03:32N 46°12' W 123°23'0 0.0
2015-Aug-28 02:29N 46°12' W 123°23'0 0.0
2015-Aug-28 01:33N 46°12' W 123°23'6 6.0
2015-Aug-28 00:33N 46°09' W 123°15'1212.1
2015-Aug-27 23:34N 46°07' W 122°58'3 3.0
2015-Aug-27 22:33N 46°09' W 123°02'8 8.1
2015-Aug-27 21:33N 46°10' W 123°14'7 7.2
2015-Aug-27 20:33N 46°09' W 123°24'7 6.7
2015-Aug-27 19:33N 46°16' W 123°27'7 7.1
2015-Aug-27 18:34N 46°15' W 123°38'7 7.0
2015-Aug-27 17:34N 46°13' W 123°47'7 6.6
2015-Aug-27 16:33N 46°12' W 123°56'7 6.7
2015-Aug-27 15:33N 46°15' W 124°05'5 5.1
2015-Aug-27 14:33N 46°13' W 124°12'4 4.2
2015-Aug-27 13:33N 46°18' W 124°13'4 4.3
2015-Aug-27 12:33N 46°22' W 124°14'5 5.1
2015-Aug-27 11:33N 46°27' W 124°15'5 5.1
2015-Aug-27 10:33N 46°32' W 124°16'5 5.3
2015-Aug-27 09:33N 46°37' W 124°17'5 5.4
2015-Aug-27 08:33N 46°43' W 124°18'5 5.3
2015-Aug-27 07:33N 46°48' W 124°19'5 4.6
2015-Aug-27 06:33N 46°52' W 124°15'0 0.0
2015-Aug-26 03:33N 46°52' W 124°15'5 4.6
2015-Aug-26 02:33N 46°49' W 124°20'5 4.9
2015-Aug-26 01:33N 46°44' W 124°19'5 5.4
2015-Aug-26 00:33N 46°39' W 124°17'5 5.2
2015-Aug-25 23:33N 46°34' W 124°16'5 5.2
2015-Aug-25 22:33N 46°29' W 124°15'5 4.9
2015-Aug-25 21:33N 46°24' W 124°14'5 5.0
2015-Aug-25 20:33N 46°19' W 124°13'5 5.1
2015-Aug-25 19:34N 46°14' W 124°12'5 5.5
2015-Aug-25 18:33N 46°15' W 124°05'9 8.9
2015-Aug-25 17:33N 46°11' W 123°53'10 9.6
2015-Aug-25 16:33N 46°15' W 123°40'9 9.4
2015-Aug-25 15:33N 46°15' W 123°27'9 9.2
2015-Aug-25 14:33N 46°09' W 123°18'1110.8
2015-Aug-25 13:32N 46°08' W 123°02'3 2.8
2015-Aug-25 12:33N 46°07' W 122°58'0 0.1
2015-Aug-25 11:33N 46°07' W 122°58'0 0.0
2015-Aug-25 10:33N 46°07' W 122°58'9 9.2
2015-Aug-25 09:33N 46°11' W 123°10'1010.1
2015-Aug-25 08:33N 46°10' W 123°25'2 2.4
2015-Aug-25 07:33N 46°12' W 123°23'2 2.4
2015-Aug-25 06:33N 46°10' W 123°24'3 3.4
2015-Aug-25 05:33N 46°13' W 123°25'7 7.1
2015-Aug-25 04:33N 46°15' W 123°35'9 8.7
2015-Aug-25 03:34N 46°13' W 123°47'8 8.1
2015-Aug-25 02:33N 46°14' W 123°59'6 6.2
2015-Aug-25 01:34N 46°13' W 124°08'5 5.1
2015-Aug-25 00:33N 46°09' W 124°11'7 7.4
2015-Aug-24 23:33N 46°01' W 124°14'7 7.4
2015-Aug-24 22:33N 45°54' W 124°16'7 7.5
2015-Aug-24 21:33N 45°47' W 124°19'8 7.6
2015-Aug-24 20:33N 45°40' W 124°22'7 7.4
2015-Aug-24 19:33N 45°33' W 124°25'7 7.3
2015-Aug-24 18:33N 45°25' W 124°27'8 6.8
2015-Aug-24 17:20N 45°17' W 124°30'7 6.3
2015-Aug-24 16:18N 45°11' W 124°33'5 6.3
2015-Aug-24 15:31N 45°06' W 124°34'7 6.1
2015-Aug-24 14:21N 44°59' W 124°35'6 5.9
2015-Aug-24 13:15N 44°53' W 124°35'9 5.5
2015-Aug-24 11:33N 44°43' W 124°36'5 5.4
2015-Aug-24 10:33N 44°38' W 124°36'8 5.6
2015-Aug-24 09:10N 44°30' W 124°35'4 6.0
2015-Aug-24 08:32N 44°27' W 124°34'6 5.9
2015-Aug-24 07:26N 44°20' W 124°32'25 6.1
2015-Aug-24 03:19N 43°56' W 124°26'11 6.1
2015-Aug-24 01:33N 43°45' W 124°23'  

Dump ship's entire track history